15:59
Airports
Links
Donate
Help keep this website running!
PayPal
Bitcoin
METAR
PHHI 211558Z AUTO 00000KT 10SM FEW029 BKN049 20/18 A3003 RMK AO2 SLP160 T01970182 $
Current Weather Conditions at PHHI
VFR 15:58:00 21-09-17
Automated station, no observer
Altimeter:30.03 hg
Temp:19.7°c 66°f
Dew point:18.2°c 64°f
Wind:0 knots, 0 mph, 0 m/s,
Variable direction
Visibility:10.0 statute miles
4900(BKN) Broken
2900(FEW) A few
Past METAR reports
VFR 14:58:00 21-09-17
Automated station, no observer
Altimeter:30.03 hg
Temp:19.5°c 66°f
Dew point:17.9°c 63°f
Wind:0 knots, 0 mph, 0 m/s,
Variable direction
Visibility:10.0 statute miles
4500(SCT) Scattered
3200(FEW) A few
PHHI 211458Z AUTO 00000KT 10SM FEW032 SCT045 20/18 A3003 RMK AO2 SLP159 T01950179 56010 $
VFR 13:58:00 21-09-17
Automated station, no observer
Altimeter:30.03 hg
Temp:20.6°c 68°f
Dew point:18.0°c 64°f
Wind:0 knots, 0 mph, 0 m/s,
Variable direction
Visibility:10.0 statute miles
3900(FEW) A few
PHHI 211358Z AUTO 00000KT 10SM FEW039 21/18 A3003 RMK AO2 SLP159 T02060180 $
VFR 13:33:00 21-09-17
Automated station, no observer
Altimeter:30.03 hg
Temp:22.0°c 72°f
Dew point:18.0°c 64°f
Wind:0 knots, 0 mph, 0 m/s,
Variable direction
Visibility:10.0 statute miles
3200(BKN) Broken
2600(SCT) Scattered
PHHI 211333Z AUTO 00000KT 10SM SCT026 BKN032 22/18 A3003 RMK AO2 SLP157
MVFR 13:13:00 21-09-17
Automated station, no observer
Altimeter:30.03 hg
Temp:21.0°c 70°f
Dew point:18.0°c 64°f
Wind:0 knots, 0 mph, 0 m/s,
Variable direction
Visibility:10.0 statute miles
3500(BKN) Broken
2800(BKN) Broken
PHHI 211313Z AUTO 00000KT 10SM BKN028 BKN035 21/18 A3003 RMK AO2 CIG 028V041 BKN028 V SCT SLP158
VFR 12:58:00 21-09-17
Automated station, no observer
Altimeter:30.03 hg
Temp:19.8°c 66°f
Dew point:17.8°c 63°f
Wind:0 knots, 0 mph, 0 m/s,
Variable direction
Visibility:10.0 statute miles
4300(SCT) Scattered
3500(FEW) A few
PHHI 211258Z AUTO 00000KT 10SM FEW035 SCT043 20/18 A3003 RMK AO2 SLP159 T01980178 $
VFR 11:58:00 21-09-17
Automated station, no observer
Altimeter:30.06 hg
Temp:19.9°c 66°f
Dew point:18.1°c 64°f
Wind:0 knots, 0 mph, 0 m/s,
Variable direction
Visibility:10.0 statute miles
(CLR) Clear
PHHI 211158Z AUTO 00000KT 10SM CLR 20/18 A3006 RMK AO2 SLP169 T01990181 10246 20194 57012 $
TAF
TAF PHHI 211500Z 2115/2221 VRB06KT 9999 SCT020 SCT045 QNH3002INS BECMG 2119/2120 09010KT 9999 SCT030 QNH3001INS TEMPO 2123/2204 09010G15KT BKN025 BECMG 2204/2205 VRB06KT 9999 SCT020 QNH3002INS BECMG 2219/2220 09010KT 9999 SCT030 QNH3001INS TX30/2201Z TN20/2115Z
Forecast at PHHI
15:00 21-09-17 to 19:00 21-09-17
Wind:6 Knots from 360°
Visibility:6.21 statute miles
2000SCT Scattered
4500SCT Scattered
BECMG 19:00 21-09-17 to 04:00 22-09-17
Wind:10 Knots from 90°
Visibility:6.21 statute miles
3000SCT Scattered
TEMPO 23:00 21-09-17 to 04:00 22-09-17
Wind:10 Knots from 90°
2500BKN Broken
BECMG 04:00 22-09-17 to 19:00 22-09-17
Wind:6 Knots from 360°
Visibility:6.21 statute miles
2000SCT Scattered
BECMG 19:00 22-09-17 to 21:00 22-09-17
Wind:10 Knots from 90°
Visibility:6.21 statute miles
3000SCT Scattered